Huvudsida
METAR-TAF:

METAR-TAF

Flygplatser :

Quelimane, Moçambique

latitud: 17-53S, longitud: 036-53E, höjd: 6 m

Aktuellt väderrapport

Denna rapport gjordes för 50 minuter sedan, klockan 12:00 UTC
Temperatur 27°C
Fuktighet 58%
Tryck 1018 hPa
Sikt 10 km eller mer
Spridda moln på en höjd av 2000 ft

METAR: FQQL 181200Z /////KT 9999 SCT020 27/18 Q1018

Tid: 14:50 (12:50 UTC)

Väderprognos

Denna rapport gjordes för 2 timmar och 50 minuter sedan, klockan 10:00 UTC
Prognos gäller från 18 kl. 12 UTC till 19 kl. 12 UTC
Vind 8 kt från syd/sydväst
Sikt 10 km eller mer
Spridda moln på en höjd av 2000 ft
Brutna moln på en höjd av 9000 ft
Blir
från 18 kl. 18 UTC till 18 kl. 20 UTC
Vind 8 kt från syd/sydost
Blir
från 19 kl. 00 UTC till 19 kl. 02 UTC
Vind 8 kt från nord

TAF: FQQL 181000Z 1812/1912 21008KT 9999 SCT020 BKN090 TX28/1813Z TN16/1902Z BECMG 1818/1820 15008KT BECMG 1900/1902 35008KT

Aktuella väderrapporter och prognoser från 4000 flygplatser (METAR- och TAF-rapporter).

De tillgängliga stationerna syns som gula och röda prickar på kartan.

För musen över prickarna för att se namnen på stationerna.

Klicka sedan för att få väderrapporter och prognoser.

För att ändra kartan: Klicka på de gröna knapparna med ett svart kors på för att zooma in; den gröna knappen med ett streck på för att zooma ut; eller på de gröna pilarna för angränsande kartor.


METAR-TAF: